Terminal Aerodrome Forecast
Issued by NWS Sioux Falls, SD

Home | Current Version | Previous Version | Graphics & Text | Print | Product List | Glossary Off
Versions: 1 2 3 4 5 6 7 8 9 10 11 12 13 14 15 16 17 18

000
FTUS43 KFSD 242326
TAFSUX
TAF
KSUX 242326Z 2500/2524 14008KT P6SM SCT100
     FM250700 13007KT 6SM SHRA VCTS OVC040CB
     FM251000 12008KT P6SM BKN015
     FM251400 14009KT P6SM BKN025
     FM251900 19010KT P6SM BKN035=

USA.gov is the U.S. government's official web portal to all federal, state and local government web resources and services.